sensor_id;sensor_type;location;lat;lon;timestamp;P1;durP1;ratioP1;P2;durP2;ratioP2
18265;SDS011;9259;48.194;16.322;2024-02-28T00:02:05;9.20;;;4.10;;
18265;SDS011;9259;48.194;16.322;2024-02-28T00:04:35;9.77;;;4.07;;
18265;SDS011;9259;48.194;16.322;2024-02-28T00:07:03;7.97;;;4.07;;
18265;SDS011;9259;48.194;16.322;2024-02-28T00:09:31;8.30;;;4.17;;
18265;SDS011;9259;48.194;16.322;2024-02-28T00:11:59;7.70;;;3.77;;
18265;SDS011;9259;48.194;16.322;2024-02-28T00:14:27;7.70;;;3.80;;
18265;SDS011;9259;48.194;16.322;2024-02-28T00:16:55;7.63;;;3.73;;
18265;SDS011;9259;48.194;16.322;2024-02-28T00:19:23;7.53;;;3.83;;
18265;SDS011;9259;48.194;16.322;2024-02-28T00:21:53;8.83;;;4.00;;
18265;SDS011;9259;48.194;16.322;2024-02-28T00:24:21;9.37;;;4.00;;
18265;SDS011;9259;48.194;16.322;2024-02-28T00:26:49;14.73;;;4.43;;
18265;SDS011;9259;48.194;16.322;2024-02-28T00:29:17;12.23;;;3.67;;
18265;SDS011;9259;48.194;16.322;2024-02-28T00:31:45;11.00;;;3.43;;
18265;SDS011;9259;48.194;16.322;2024-02-28T00:34:13;5.67;;;3.20;;
18265;SDS011;9259;48.194;16.322;2024-02-28T00:36:41;7.63;;;3.70;;
18265;SDS011;9259;48.194;16.322;2024-02-28T00:39:11;9.67;;;3.43;;
18265;SDS011;9259;48.194;16.322;2024-02-28T00:41:39;7.87;;;3.13;;
18265;SDS011;9259;48.194;16.322;2024-02-28T00:44:07;10.00;;;3.50;;
18265;SDS011;9259;48.194;16.322;2024-02-28T00:46:34;8.37;;;3.60;;
18265;SDS011;9259;48.194;16.322;2024-02-28T00:49:02;7.00;;;3.20;;
18265;SDS011;9259;48.194;16.322;2024-02-28T00:51:30;9.67;;;3.20;;
18265;SDS011;9259;48.194;16.322;2024-02-28T00:53:59;6.80;;;3.20;;
18265;SDS011;9259;48.194;16.322;2024-02-28T00:56:29;7.33;;;3.30;;
18265;SDS011;9259;48.194;16.322;2024-02-28T00:58:57;4.93;;;3.23;;
18265;SDS011;9259;48.194;16.322;2024-02-28T01:01:25;9.50;;;3.50;;
18265;SDS011;9259;48.194;16.322;2024-02-28T01:03:53;8.57;;;2.93;;
18265;SDS011;9259;48.194;16.322;2024-02-28T01:06:21;7.83;;;3.37;;
18265;SDS011;9259;48.194;16.322;2024-02-28T01:08:49;7.77;;;3.30;;
18265;SDS011;9259;48.194;16.322;2024-02-28T01:11:17;7.90;;;3.30;;
18265;SDS011;9259;48.194;16.322;2024-02-28T01:13:46;6.93;;;3.20;;
18265;SDS011;9259;48.194;16.322;2024-02-28T01:16:14;10.63;;;3.13;;
18265;SDS011;9259;48.194;16.322;2024-02-28T01:18:42;9.87;;;3.63;;
18265;SDS011;9259;48.194;16.322;2024-02-28T01:21:10;7.70;;;2.87;;
18265;SDS011;9259;48.194;16.322;2024-02-28T01:23:38;8.43;;;3.10;;
18265;SDS011;9259;48.194;16.322;2024-02-28T01:26:06;5.63;;;3.17;;
18265;SDS011;9259;48.194;16.322;2024-02-28T01:28:35;8.90;;;3.20;;
18265;SDS011;9259;48.194;16.322;2024-02-28T01:31:04;5.27;;;2.60;;
18265;SDS011;9259;48.194;16.322;2024-02-28T01:33:32;7.33;;;3.20;;
18265;SDS011;9259;48.194;16.322;2024-02-28T01:36:00;6.13;;;2.80;;
18265;SDS011;9259;48.194;16.322;2024-02-28T01:38:29;9.07;;;3.30;;
18265;SDS011;9259;48.194;16.322;2024-02-28T01:40:57;5.67;;;2.60;;
18265;SDS011;9259;48.194;16.322;2024-02-28T01:43:24;6.40;;;2.70;;
18265;SDS011;9259;48.194;16.322;2024-02-28T01:45:53;7.00;;;3.20;;
18265;SDS011;9259;48.194;16.322;2024-02-28T01:48:22;6.97;;;2.83;;
18265;SDS011;9259;48.194;16.322;2024-02-28T01:50:50;6.30;;;2.87;;
18265;SDS011;9259;48.194;16.322;2024-02-28T01:53:18;10.33;;;3.30;;
18265;SDS011;9259;48.194;16.322;2024-02-28T01:55:46;7.47;;;3.23;;
18265;SDS011;9259;48.194;16.322;2024-02-28T01:58:14;7.07;;;2.90;;
18265;SDS011;9259;48.194;16.322;2024-02-28T02:00:42;8.73;;;2.93;;
18265;SDS011;9259;48.194;16.322;2024-02-28T02:03:11;7.37;;;3.23;;
18265;SDS011;9259;48.194;16.322;2024-02-28T02:05:42;8.30;;;3.00;;
18265;SDS011;9259;48.194;16.322;2024-02-28T02:08:10;9.37;;;3.13;;
18265;SDS011;9259;48.194;16.322;2024-02-28T02:10:39;9.40;;;3.23;;
18265;SDS011;9259;48.194;16.322;2024-02-28T02:13:07;7.43;;;2.80;;
18265;SDS011;9259;48.194;16.322;2024-02-28T02:15:35;13.33;;;2.80;;
18265;SDS011;9259;48.194;16.322;2024-02-28T02:18:04;7.50;;;2.57;;
18265;SDS011;9259;48.194;16.322;2024-02-28T02:20:32;6.47;;;2.47;;
18265;SDS011;9259;48.194;16.322;2024-02-28T02:23:01;9.90;;;2.47;;
18265;SDS011;9259;48.194;16.322;2024-02-28T02:25:30;8.70;;;2.87;;
18265;SDS011;9259;48.194;16.322;2024-02-28T02:27:58;7.07;;;2.60;;
18265;SDS011;9259;48.194;16.322;2024-02-28T02:30:26;6.33;;;2.33;;
18265;SDS011;9259;48.194;16.322;2024-02-28T02:32:54;6.83;;;2.33;;
18265;SDS011;9259;48.194;16.322;2024-02-28T02:35:22;5.13;;;2.50;;
18265;SDS011;9259;48.194;16.322;2024-02-28T02:37:50;8.60;;;2.83;;
18265;SDS011;9259;48.194;16.322;2024-02-28T02:40:19;8.97;;;2.60;;
18265;SDS011;9259;48.194;16.322;2024-02-28T02:42:47;4.77;;;2.43;;
18265;SDS011;9259;48.194;16.322;2024-02-28T02:45:15;6.67;;;2.77;;
18265;SDS011;9259;48.194;16.322;2024-02-28T02:47:43;7.60;;;2.40;;
18265;SDS011;9259;48.194;16.322;2024-02-28T02:50:11;8.20;;;3.13;;
18265;SDS011;9259;48.194;16.322;2024-02-28T02:52:39;6.67;;;3.10;;
18265;SDS011;9259;48.194;16.322;2024-02-28T02:55:08;7.63;;;3.40;;
18265;SDS011;9259;48.194;16.322;2024-02-28T02:57:37;9.20;;;2.93;;
18265;SDS011;9259;48.194;16.322;2024-02-28T03:00:07;11.67;;;3.43;;
18265;SDS011;9259;48.194;16.322;2024-02-28T03:02:36;11.50;;;2.83;;
18265;SDS011;9259;48.194;16.322;2024-02-28T03:05:05;10.57;;;3.30;;
18265;SDS011;9259;48.194;16.322;2024-02-28T03:07:34;7.97;;;3.50;;
18265;SDS011;9259;48.194;16.322;2024-02-28T03:10:02;7.97;;;3.10;;
18265;SDS011;9259;48.194;16.322;2024-02-28T03:12:30;8.77;;;3.73;;
18265;SDS011;9259;48.194;16.322;2024-02-28T03:15:00;10.70;;;4.43;;
18265;SDS011;9259;48.194;16.322;2024-02-28T03:17:28;9.57;;;4.20;;
18265;SDS011;9259;48.194;16.322;2024-02-28T03:19:56;9.00;;;4.13;;
18265;SDS011;9259;48.194;16.322;2024-02-28T03:22:24;12.03;;;4.67;;
18265;SDS011;9259;48.194;16.322;2024-02-28T03:24:52;13.07;;;5.50;;
18265;SDS011;9259;48.194;16.322;2024-02-28T03:27:20;9.20;;;5.07;;
18265;SDS011;9259;48.194;16.322;2024-02-28T03:29:48;17.30;;;6.77;;
18265;SDS011;9259;48.194;16.322;2024-02-28T03:32:18;12.93;;;7.30;;
18265;SDS011;9259;48.194;16.322;2024-02-28T03:34:46;17.33;;;7.67;;
18265;SDS011;9259;48.194;16.322;2024-02-28T03:37:14;17.50;;;7.77;;
18265;SDS011;9259;48.194;16.322;2024-02-28T03:39:42;16.50;;;8.43;;
18265;SDS011;9259;48.194;16.322;2024-02-28T03:42:10;17.87;;;9.43;;
18265;SDS011;9259;48.194;16.322;2024-02-28T03:44:38;17.57;;;8.73;;
18265;SDS011;9259;48.194;16.322;2024-02-28T03:47:06;20.37;;;9.67;;
18265;SDS011;9259;48.194;16.322;2024-02-28T03:49:35;17.63;;;9.47;;
18265;SDS011;9259;48.194;16.322;2024-02-28T03:52:04;23.40;;;11.10;;
18265;SDS011;9259;48.194;16.322;2024-02-28T03:54:32;19.53;;;10.70;;
18265;SDS011;9259;48.194;16.322;2024-02-28T03:57:00;20.83;;;10.60;;
18265;SDS011;9259;48.194;16.322;2024-02-28T03:59:28;23.77;;;11.93;;
18265;SDS011;9259;48.194;16.322;2024-02-28T04:01:56;21.30;;;11.77;;
18265;SDS011;9259;48.194;16.322;2024-02-28T04:04:24;23.00;;;11.77;;
18265;SDS011;9259;48.194;16.322;2024-02-28T04:06:54;25.80;;;12.60;;
18265;SDS011;9259;48.194;16.322;2024-02-28T04:09:22;26.50;;;13.33;;
18265;SDS011;9259;48.194;16.322;2024-02-28T04:11:50;23.03;;;12.13;;
18265;SDS011;9259;48.194;16.322;2024-02-28T04:14:18;24.57;;;12.33;;
18265;SDS011;9259;48.194;16.322;2024-02-28T04:16:46;27.30;;;13.53;;
18265;SDS011;9259;48.194;16.322;2024-02-28T04:19:16;24.10;;;13.40;;
18265;SDS011;9259;48.194;16.322;2024-02-28T04:21:44;26.53;;;13.40;;
18265;SDS011;9259;48.194;16.322;2024-02-28T04:24:13;28.23;;;14.40;;
18265;SDS011;9259;48.194;16.322;2024-02-28T04:26:41;28.27;;;14.37;;
18265;SDS011;9259;48.194;16.322;2024-02-28T04:29:09;27.63;;;14.50;;
18265;SDS011;9259;48.194;16.322;2024-02-28T04:31:39;31.07;;;14.40;;
18265;SDS011;9259;48.194;16.322;2024-02-28T04:34:07;29.30;;;14.30;;
18265;SDS011;9259;48.194;16.322;2024-02-28T04:36:35;31.00;;;14.73;;
18265;SDS011;9259;48.194;16.322;2024-02-28T04:39:03;32.93;;;15.03;;
18265;SDS011;9259;48.194;16.322;2024-02-28T04:41:34;26.70;;;13.97;;
18265;SDS011;9259;48.194;16.322;2024-02-28T04:44:02;31.03;;;14.47;;
18265;SDS011;9259;48.194;16.322;2024-02-28T04:46:30;28.73;;;15.47;;
18265;SDS011;9259;48.194;16.322;2024-02-28T04:48:59;32.00;;;15.23;;
18265;SDS011;9259;48.194;16.322;2024-02-28T04:51:27;33.17;;;16.13;;
18265;SDS011;9259;48.194;16.322;2024-02-28T04:53:55;31.37;;;15.50;;
18265;SDS011;9259;48.194;16.322;2024-02-28T04:56:23;34.03;;;15.30;;
18265;SDS011;9259;48.194;16.322;2024-02-28T04:58:52;32.00;;;15.50;;
18265;SDS011;9259;48.194;16.322;2024-02-28T05:01:20;36.40;;;17.13;;
18265;SDS011;9259;48.194;16.322;2024-02-28T05:03:48;31.43;;;16.27;;
18265;SDS011;9259;48.194;16.322;2024-02-28T05:06:16;32.80;;;16.33;;
18265;SDS011;9259;48.194;16.322;2024-02-28T05:08:44;29.60;;;15.83;;
18265;SDS011;9259;48.194;16.322;2024-02-28T05:11:12;32.57;;;15.43;;
18265;SDS011;9259;48.194;16.322;2024-02-28T05:13:40;29.70;;;15.73;;
18265;SDS011;9259;48.194;16.322;2024-02-28T05:16:13;33.80;;;15.87;;
18265;SDS011;9259;48.194;16.322;2024-02-28T05:18:41;32.53;;;16.93;;
18265;SDS011;9259;48.194;16.322;2024-02-28T05:21:10;34.47;;;17.23;;
18265;SDS011;9259;48.194;16.322;2024-02-28T05:23:39;32.73;;;16.40;;
18265;SDS011;9259;48.194;16.322;2024-02-28T05:26:07;33.30;;;17.10;;
18265;SDS011;9259;48.194;16.322;2024-02-28T05:28:35;33.60;;;16.50;;
18265;SDS011;9259;48.194;16.322;2024-02-28T05:31:19;37.80;;;17.37;;
18265;SDS011;9259;48.194;16.322;2024-02-28T05:33:50;36.23;;;17.67;;
18265;SDS011;9259;48.194;16.322;2024-02-28T05:36:18;32.43;;;17.00;;
18265;SDS011;9259;48.194;16.322;2024-02-28T05:38:46;33.20;;;16.50;;
18265;SDS011;9259;48.194;16.322;2024-02-28T05:41:16;34.87;;;17.33;;
18265;SDS011;9259;48.194;16.322;2024-02-28T05:43:44;34.97;;;17.07;;
18265;SDS011;9259;48.194;16.322;2024-02-28T05:46:11;32.37;;;16.67;;
18265;SDS011;9259;48.194;16.322;2024-02-28T05:48:41;34.07;;;17.33;;
18265;SDS011;9259;48.194;16.322;2024-02-28T05:51:10;32.70;;;16.40;;
18265;SDS011;9259;48.194;16.322;2024-02-28T05:53:38;35.80;;;18.13;;
18265;SDS011;9259;48.194;16.322;2024-02-28T05:56:08;37.77;;;18.70;;
18265;SDS011;9259;48.194;16.322;2024-02-28T05:58:39;37.07;;;17.63;;
18265;SDS011;9259;48.194;16.322;2024-02-28T06:01:08;37.70;;;19.33;;
18265;SDS011;9259;48.194;16.322;2024-02-28T06:03:37;35.13;;;18.50;;
18265;SDS011;9259;48.194;16.322;2024-02-28T06:06:06;35.90;;;17.43;;
18265;SDS011;9259;48.194;16.322;2024-02-28T06:08:38;40.37;;;19.20;;
18265;SDS011;9259;48.194;16.322;2024-02-28T06:11:06;40.73;;;17.53;;
18265;SDS011;9259;48.194;16.322;2024-02-28T06:13:35;43.27;;;19.30;;
18265;SDS011;9259;48.194;16.322;2024-02-28T06:16:04;36.60;;;18.07;;
18265;SDS011;9259;48.194;16.322;2024-02-28T06:18:32;37.97;;;18.43;;
18265;SDS011;9259;48.194;16.322;2024-02-28T06:21:00;35.13;;;17.97;;
18265;SDS011;9259;48.194;16.322;2024-02-28T06:23:29;39.30;;;19.13;;
18265;SDS011;9259;48.194;16.322;2024-02-28T06:25:57;38.17;;;17.87;;
18265;SDS011;9259;48.194;16.322;2024-02-28T06:28:26;42.67;;;18.73;;
18265;SDS011;9259;48.194;16.322;2024-02-28T06:30:54;40.57;;;18.63;;
18265;SDS011;9259;48.194;16.322;2024-02-28T06:33:22;34.33;;;16.73;;
18265;SDS011;9259;48.194;16.322;2024-02-28T06:35:49;38.70;;;18.27;;
18265;SDS011;9259;48.194;16.322;2024-02-28T06:38:18;35.63;;;18.10;;
18265;SDS011;9259;48.194;16.322;2024-02-28T06:40:47;39.50;;;18.30;;
18265;SDS011;9259;48.194;16.322;2024-02-28T06:43:15;36.33;;;18.27;;
18265;SDS011;9259;48.194;16.322;2024-02-28T06:45:43;36.80;;;18.40;;
18265;SDS011;9259;48.194;16.322;2024-02-28T06:48:11;39.90;;;18.87;;
18265;SDS011;9259;48.194;16.322;2024-02-28T06:50:39;39.33;;;18.60;;
18265;SDS011;9259;48.194;16.322;2024-02-28T06:53:07;37.63;;;18.47;;
18265;SDS011;9259;48.194;16.322;2024-02-28T06:55:35;39.23;;;17.97;;
18265;SDS011;9259;48.194;16.322;2024-02-28T06:58:04;40.10;;;18.27;;
18265;SDS011;9259;48.194;16.322;2024-02-28T07:00:32;37.93;;;18.30;;
18265;SDS011;9259;48.194;16.322;2024-02-28T07:03:00;39.20;;;18.60;;
18265;SDS011;9259;48.194;16.322;2024-02-28T07:05:30;37.20;;;18.57;;
18265;SDS011;9259;48.194;16.322;2024-02-28T07:07:59;41.67;;;18.23;;
18265;SDS011;9259;48.194;16.322;2024-02-28T07:10:27;40.73;;;19.87;;
18265;SDS011;9259;48.194;16.322;2024-02-28T07:12:55;38.73;;;18.40;;
18265;SDS011;9259;48.194;16.322;2024-02-28T07:15:24;35.20;;;18.50;;
18265;SDS011;9259;48.194;16.322;2024-02-28T07:17:52;38.70;;;18.67;;
18265;SDS011;9259;48.194;16.322;2024-02-28T07:20:20;36.57;;;17.73;;
18265;SDS011;9259;48.194;16.322;2024-02-28T07:22:50;41.00;;;19.07;;
18265;SDS011;9259;48.194;16.322;2024-02-28T07:25:18;38.37;;;18.60;;
18265;SDS011;9259;48.194;16.322;2024-02-28T07:27:47;40.57;;;18.00;;
18265;SDS011;9259;48.194;16.322;2024-02-28T07:30:15;37.23;;;18.93;;
18265;SDS011;9259;48.194;16.322;2024-02-28T07:32:44;37.97;;;18.40;;
18265;SDS011;9259;48.194;16.322;2024-02-28T07:35:13;40.77;;;19.70;;
18265;SDS011;9259;48.194;16.322;2024-02-28T07:37:41;40.07;;;19.57;;
18265;SDS011;9259;48.194;16.322;2024-02-28T07:40:10;35.90;;;18.80;;
18265;SDS011;9259;48.194;16.322;2024-02-28T07:42:38;39.10;;;19.67;;
18265;SDS011;9259;48.194;16.322;2024-02-28T07:45:06;39.27;;;19.37;;
18265;SDS011;9259;48.194;16.322;2024-02-28T07:47:34;40.60;;;19.17;;
18265;SDS011;9259;48.194;16.322;2024-02-28T07:50:06;36.70;;;18.47;;
18265;SDS011;9259;48.194;16.322;2024-02-28T07:52:34;35.63;;;18.70;;
18265;SDS011;9259;48.194;16.322;2024-02-28T07:55:03;43.13;;;19.30;;
18265;SDS011;9259;48.194;16.322;2024-02-28T07:57:32;37.23;;;19.23;;
18265;SDS011;9259;48.194;16.322;2024-02-28T08:00:00;43.60;;;20.43;;
18265;SDS011;9259;48.194;16.322;2024-02-28T08:02:28;39.50;;;19.47;;
18265;SDS011;9259;48.194;16.322;2024-02-28T08:04:56;41.27;;;20.30;;
18265;SDS011;9259;48.194;16.322;2024-02-28T08:07:25;36.50;;;19.03;;
18265;SDS011;9259;48.194;16.322;2024-02-28T08:09:53;37.03;;;18.97;;
18265;SDS011;9259;48.194;16.322;2024-02-28T08:12:21;38.83;;;18.10;;
18265;SDS011;9259;48.194;16.322;2024-02-28T08:14:49;38.90;;;19.03;;
18265;SDS011;9259;48.194;16.322;2024-02-28T08:17:17;40.80;;;18.33;;
18265;SDS011;9259;48.194;16.322;2024-02-28T08:19:45;37.33;;;19.30;;
18265;SDS011;9259;48.194;16.322;2024-02-28T08:22:13;35.53;;;18.63;;
18265;SDS011;9259;48.194;16.322;2024-02-28T08:24:43;35.20;;;18.13;;
18265;SDS011;9259;48.194;16.322;2024-02-28T08:27:11;36.83;;;18.43;;
18265;SDS011;9259;48.194;16.322;2024-02-28T08:29:39;37.03;;;17.60;;
18265;SDS011;9259;48.194;16.322;2024-02-28T08:32:09;36.10;;;17.70;;
18265;SDS011;9259;48.194;16.322;2024-02-28T08:34:36;36.87;;;17.77;;
18265;SDS011;9259;48.194;16.322;2024-02-28T08:37:04;32.83;;;17.03;;
18265;SDS011;9259;48.194;16.322;2024-02-28T08:39:33;31.93;;;17.23;;
18265;SDS011;9259;48.194;16.322;2024-02-28T08:42:03;34.10;;;18.20;;
18265;SDS011;9259;48.194;16.322;2024-02-28T08:44:31;36.80;;;18.30;;
18265;SDS011;9259;48.194;16.322;2024-02-28T08:46:59;37.37;;;18.30;;
18265;SDS011;9259;48.194;16.322;2024-02-28T08:49:27;39.20;;;17.80;;
18265;SDS011;9259;48.194;16.322;2024-02-28T08:51:56;35.83;;;17.30;;
18265;SDS011;9259;48.194;16.322;2024-02-28T08:54:24;34.80;;;18.17;;
18265;SDS011;9259;48.194;16.322;2024-02-28T08:56:52;32.53;;;17.00;;
18265;SDS011;9259;48.194;16.322;2024-02-28T08:59:21;34.97;;;17.73;;
18265;SDS011;9259;48.194;16.322;2024-02-28T09:01:49;37.57;;;17.80;;
18265;SDS011;9259;48.194;16.322;2024-02-28T09:04:17;31.87;;;17.57;;
18265;SDS011;9259;48.194;16.322;2024-02-28T09:06:46;36.63;;;18.83;;
18265;SDS011;9259;48.194;16.322;2024-02-28T09:09:14;32.50;;;18.33;;
18265;SDS011;9259;48.194;16.322;2024-02-28T09:11:42;33.60;;;16.93;;
18265;SDS011;9259;48.194;16.322;2024-02-28T09:14:10;33.63;;;18.00;;
18265;SDS011;9259;48.194;16.322;2024-02-28T09:16:40;37.63;;;17.80;;
18265;SDS011;9259;48.194;16.322;2024-02-28T09:19:07;33.97;;;17.53;;
18265;SDS011;9259;48.194;16.322;2024-02-28T09:21:35;31.77;;;18.13;;
18265;SDS011;9259;48.194;16.322;2024-02-28T09:24:04;36.97;;;18.20;;
18265;SDS011;9259;48.194;16.322;2024-02-28T09:26:32;31.53;;;17.70;;
18265;SDS011;9259;48.194;16.322;2024-02-28T09:29:00;34.53;;;18.13;;
18265;SDS011;9259;48.194;16.322;2024-02-28T09:31:28;32.17;;;17.27;;
18265;SDS011;9259;48.194;16.322;2024-02-28T09:33:57;36.67;;;18.50;;
18265;SDS011;9259;48.194;16.322;2024-02-28T09:36:26;37.00;;;18.77;;
18265;SDS011;9259;48.194;16.322;2024-02-28T09:38:54;36.10;;;18.53;;
18265;SDS011;9259;48.194;16.322;2024-02-28T09:41:22;35.03;;;17.90;;
18265;SDS011;9259;48.194;16.322;2024-02-28T09:43:52;38.07;;;17.63;;
18265;SDS011;9259;48.194;16.322;2024-02-28T09:46:20;34.37;;;18.37;;
18265;SDS011;9259;48.194;16.322;2024-02-28T09:48:48;37.03;;;17.77;;
18265;SDS011;9259;48.194;16.322;2024-02-28T09:51:18;34.57;;;16.50;;
18265;SDS011;9259;48.194;16.322;2024-02-28T09:53:49;34.20;;;17.83;;
18265;SDS011;9259;48.194;16.322;2024-02-28T09:56:19;38.77;;;19.40;;
18265;SDS011;9259;48.194;16.322;2024-02-28T09:58:48;35.53;;;18.03;;
18265;SDS011;9259;48.194;16.322;2024-02-28T10:01:16;32.73;;;17.73;;
18265;SDS011;9259;48.194;16.322;2024-02-28T10:03:47;35.43;;;17.53;;
18265;SDS011;9259;48.194;16.322;2024-02-28T10:06:17;35.27;;;18.40;;
18265;SDS011;9259;48.194;16.322;2024-02-28T10:08:45;35.10;;;19.03;;
18265;SDS011;9259;48.194;16.322;2024-02-28T10:11:17;33.30;;;18.03;;
18265;SDS011;9259;48.194;16.322;2024-02-28T10:13:46;38.53;;;19.17;;
18265;SDS011;9259;48.194;16.322;2024-02-28T10:16:14;37.27;;;17.40;;
18265;SDS011;9259;48.194;16.322;2024-02-28T10:18:42;34.60;;;18.13;;
18265;SDS011;9259;48.194;16.322;2024-02-28T10:21:10;35.55;;;18.75;;
18265;SDS011;9259;48.194;16.322;2024-02-28T10:23:42;33.87;;;18.70;;
18265;SDS011;9259;48.194;16.322;2024-02-28T10:26:11;35.75;;;18.23;;
18265;SDS011;9259;48.194;16.322;2024-02-28T10:28:39;31.15;;;18.27;;
18265;SDS011;9259;48.194;16.322;2024-02-28T10:31:09;33.47;;;18.07;;
18265;SDS011;9259;48.194;16.322;2024-02-28T10:33:38;34.47;;;17.63;;
18265;SDS011;9259;48.194;16.322;2024-02-28T10:36:05;35.53;;;19.50;;
18265;SDS011;9259;48.194;16.322;2024-02-28T10:38:34;35.80;;;18.73;;
18265;SDS011;9259;48.194;16.322;2024-02-28T10:41:03;32.85;;;16.65;;
18265;SDS011;9259;48.194;16.322;2024-02-28T10:43:31;31.95;;;17.90;;
18265;SDS011;9259;48.194;16.322;2024-02-28T10:46:00;36.10;;;18.60;;
18265;SDS011;9259;48.194;16.322;2024-02-28T10:48:28;32.92;;;18.27;;
18265;SDS011;9259;48.194;16.322;2024-02-28T10:50:56;30.02;;;17.10;;
18265;SDS011;9259;48.194;16.322;2024-02-28T10:53:29;31.25;;;17.55;;
18265;SDS011;9259;48.194;16.322;2024-02-28T10:56:05;33.70;;;18.30;;
18265;SDS011;9259;48.194;16.322;2024-02-28T10:58:40;35.92;;;17.70;;
18265;SDS011;9259;48.194;16.322;2024-02-28T11:01:17;35.60;;;19.33;;
18265;SDS011;9259;48.194;16.322;2024-02-28T11:03:45;34.90;;;18.45;;
18265;SDS011;9259;48.194;16.322;2024-02-28T11:06:17;38.55;;;19.73;;
18265;SDS011;9259;48.194;16.322;2024-02-28T11:08:47;38.30;;;18.42;;
18265;SDS011;9259;48.194;16.322;2024-02-28T11:11:20;33.03;;;18.40;;
18265;SDS011;9259;48.194;16.322;2024-02-28T11:13:52;37.45;;;19.85;;
18265;SDS011;9259;48.194;16.322;2024-02-28T11:16:27;34.53;;;19.13;;
18265;SDS011;9259;48.194;16.322;2024-02-28T11:18:56;34.25;;;18.30;;
18265;SDS011;9259;48.194;16.322;2024-02-28T11:21:24;38.00;;;19.58;;
18265;SDS011;9259;48.194;16.322;2024-02-28T11:23:53;33.42;;;18.20;;
18265;SDS011;9259;48.194;16.322;2024-02-28T11:26:26;31.92;;;17.90;;
18265;SDS011;9259;48.194;16.322;2024-02-28T11:28:54;37.05;;;18.40;;
18265;SDS011;9259;48.194;16.322;2024-02-28T11:31:23;34.20;;;18.92;;
18265;SDS011;9259;48.194;16.322;2024-02-28T11:33:50;35.75;;;18.95;;
18265;SDS011;9259;48.194;16.322;2024-02-28T11:36:18;35.67;;;19.38;;
18265;SDS011;9259;48.194;16.322;2024-02-28T11:38:46;39.15;;;19.42;;
18265;SDS011;9259;48.194;16.322;2024-02-28T11:41:24;34.30;;;18.60;;
18265;SDS011;9259;48.194;16.322;2024-02-28T11:43:54;38.80;;;19.45;;
18265;SDS011;9259;48.194;16.322;2024-02-28T11:46:22;39.60;;;19.80;;
18265;SDS011;9259;48.194;16.322;2024-02-28T11:48:51;39.05;;;20.10;;
18265;SDS011;9259;48.194;16.322;2024-02-28T11:51:19;35.92;;;18.63;;
18265;SDS011;9259;48.194;16.322;2024-02-28T11:53:47;38.15;;;19.02;;
18265;SDS011;9259;48.194;16.322;2024-02-28T11:56:15;34.50;;;18.10;;
18265;SDS011;9259;48.194;16.322;2024-02-28T11:58:51;37.15;;;17.90;;
18265;SDS011;9259;48.194;16.322;2024-02-28T12:01:19;33.90;;;18.65;;
18265;SDS011;9259;48.194;16.322;2024-02-28T12:04:02;40.92;;;19.85;;
18265;SDS011;9259;48.194;16.322;2024-02-28T12:06:32;38.65;;;19.70;;
18265;SDS011;9259;48.194;16.322;2024-02-28T12:09:02;36.40;;;19.55;;
18265;SDS011;9259;48.194;16.322;2024-02-28T12:11:30;38.67;;;19.73;;
18265;SDS011;9259;48.194;16.322;2024-02-28T12:14:02;35.92;;;18.35;;
18265;SDS011;9259;48.194;16.322;2024-02-28T12:16:32;36.78;;;19.67;;
18265;SDS011;9259;48.194;16.322;2024-02-28T12:19:00;35.75;;;18.98;;
18265;SDS011;9259;48.194;16.322;2024-02-28T12:21:31;34.00;;;18.27;;
18265;SDS011;9259;48.194;16.322;2024-02-28T12:23:58;37.17;;;19.07;;
18265;SDS011;9259;48.194;16.322;2024-02-28T12:26:26;40.00;;;18.88;;
18265;SDS011;9259;48.194;16.322;2024-02-28T12:28:54;35.58;;;17.88;;
18265;SDS011;9259;48.194;16.322;2024-02-28T12:31:24;40.50;;;17.70;;
18265;SDS011;9259;48.194;16.322;2024-02-28T12:33:51;35.65;;;17.77;;
18265;SDS011;9259;48.194;16.322;2024-02-28T12:36:19;35.13;;;18.73;;
18265;SDS011;9259;48.194;16.322;2024-02-28T12:38:48;37.92;;;18.52;;
18265;SDS011;9259;48.194;16.322;2024-02-28T12:41:16;37.90;;;18.40;;
18265;SDS011;9259;48.194;16.322;2024-02-28T12:43:44;35.83;;;18.48;;
18265;SDS011;9259;48.194;16.322;2024-02-28T12:46:12;34.47;;;18.10;;
18265;SDS011;9259;48.194;16.322;2024-02-28T12:48:41;35.13;;;18.75;;
18265;SDS011;9259;48.194;16.322;2024-02-28T12:51:10;35.22;;;18.30;;
18265;SDS011;9259;48.194;16.322;2024-02-28T12:53:48;36.60;;;18.45;;
18265;SDS011;9259;48.194;16.322;2024-02-28T12:56:16;38.90;;;17.88;;
18265;SDS011;9259;48.194;16.322;2024-02-28T12:58:43;35.38;;;18.02;;
18265;SDS011;9259;48.194;16.322;2024-02-28T13:01:11;37.53;;;18.17;;
18265;SDS011;9259;48.194;16.322;2024-02-28T13:03:40;34.80;;;17.05;;
18265;SDS011;9259;48.194;16.322;2024-02-28T13:06:08;34.58;;;17.75;;
18265;SDS011;9259;48.194;16.322;2024-02-28T13:08:36;34.67;;;17.73;;
18265;SDS011;9259;48.194;16.322;2024-02-28T13:11:04;35.90;;;17.45;;
18265;SDS011;9259;48.194;16.322;2024-02-28T13:13:33;31.65;;;17.55;;
18265;SDS011;9259;48.194;16.322;2024-02-28T13:16:01;34.53;;;17.55;;
18265;SDS011;9259;48.194;16.322;2024-02-28T13:18:28;35.75;;;17.25;;
18265;SDS011;9259;48.194;16.322;2024-02-28T13:20:58;35.97;;;17.95;;
18265;SDS011;9259;48.194;16.322;2024-02-28T13:23:25;33.70;;;18.38;;
18265;SDS011;9259;48.194;16.322;2024-02-28T13:25:54;33.60;;;16.92;;
18265;SDS011;9259;48.194;16.322;2024-02-28T13:28:22;36.28;;;18.08;;
18265;SDS011;9259;48.194;16.322;2024-02-28T13:30:55;33.30;;;17.15;;
18265;SDS011;9259;48.194;16.322;2024-02-28T13:33:23;35.22;;;17.95;;
18265;SDS011;9259;48.194;16.322;2024-02-28T13:35:52;35.28;;;17.85;;
18265;SDS011;9259;48.194;16.322;2024-02-28T13:38:22;33.28;;;16.63;;
18265;SDS011;9259;48.194;16.322;2024-02-28T13:40:49;31.85;;;16.35;;
18265;SDS011;9259;48.194;16.322;2024-02-28T13:43:18;29.67;;;16.48;;
18265;SDS011;9259;48.194;16.322;2024-02-28T13:45:46;32.45;;;16.00;;
18265;SDS011;9259;48.194;16.322;2024-02-28T13:48:17;33.05;;;17.10;;
18265;SDS011;9259;48.194;16.322;2024-02-28T13:50:47;30.45;;;15.35;;
18265;SDS011;9259;48.194;16.322;2024-02-28T13:53:15;31.95;;;16.60;;
18265;SDS011;9259;48.194;16.322;2024-02-28T13:55:45;29.40;;;15.95;;
18265;SDS011;9259;48.194;16.322;2024-02-28T13:58:13;31.55;;;16.17;;
18265;SDS011;9259;48.194;16.322;2024-02-28T14:00:44;30.20;;;16.38;;
18265;SDS011;9259;48.194;16.322;2024-02-28T14:03:13;32.22;;;16.42;;
18265;SDS011;9259;48.194;16.322;2024-02-28T14:05:41;29.92;;;16.50;;
18265;SDS011;9259;48.194;16.322;2024-02-28T14:08:09;40.42;;;18.40;;
18265;SDS011;9259;48.194;16.322;2024-02-28T14:10:38;36.53;;;18.63;;
18265;SDS011;9259;48.194;16.322;2024-02-28T14:13:07;30.53;;;16.50;;
18265;SDS011;9259;48.194;16.322;2024-02-28T14:15:36;32.22;;;16.88;;
18265;SDS011;9259;48.194;16.322;2024-02-28T14:18:03;31.52;;;16.80;;
18265;SDS011;9259;48.194;16.322;2024-02-28T14:20:32;30.43;;;16.23;;
18265;SDS011;9259;48.194;16.322;2024-02-28T14:23:00;39.10;;;18.07;;
18265;SDS011;9259;48.194;16.322;2024-02-28T14:25:28;32.43;;;16.10;;
18265;SDS011;9259;48.194;16.322;2024-02-28T14:27:56;32.33;;;16.60;;
18265;SDS011;9259;48.194;16.322;2024-02-28T14:30:26;34.07;;;17.53;;
18265;SDS011;9259;48.194;16.322;2024-02-28T14:32:53;38.40;;;17.43;;
18265;SDS011;9259;48.194;16.322;2024-02-28T14:35:21;39.40;;;18.63;;
18265;SDS011;9259;48.194;16.322;2024-02-28T14:37:49;35.07;;;18.37;;